Alfordsville, Indiana
Current Conditions -  °F | °C
As of 12:35 AM on Wednesday 26 Nov 2014 (Local Time) from KDCY Reporting Station
Overcast Overcast  
Wind Chill: 22°   Ceiling: 1400
Heat Index: 29°   Visibility: 10mi
Dew Point: 25°   Wind: 7mph
Humidity: 85%   Direction: 10°N
Pressure: 30.17"   Gusts: NA
Location:  38.6074°N, 86.9234°W
Report Text: KDCY 260635Z AUTO 01006KT 10SM OVC014 M02/M04 A3017 RMK AO2 T10161038
Loading
Personal Weather Stations






























Interactive Weather Map New forecast layout! Learn more

10-Day Weather Forecast

Advertisements
Track Severe Weather on mobile